Creamery, PA (19430)

4:35 AM EST on November 24, 2014 (GMT -0500)
Rockwell Terrace in Biltmore Estates | Change Station
CLOSE
Current Station
Personal Weather Station
Location: Skippack, PA
Elevation: 249 ft
Nearby Weather Stations

Elev 249 ft 40.23 °N, 75.39 °W | Updated 4 seconds ago

Rain
Rain
61.9 °F
Feels Like 61.9 °F
N
11.4
Wind Variable Wind from East
Gusts 11.4 mph

Today
High -- | Low -- °F
--% Chance of Precip.
Yesterday
High -- | Low -- °F
Precip. -- in
6:57 AM 4:38 PM
Waxing Crescent, 4% visible
Pressure 29.68 in
Visibility 6.0 miles
Clouds Mostly Cloudy 900 ft
Overcast 1400 ft
Dew Point 60 °F
Humidity 92%
Rainfall 0.43 in
Snow Depth Not available.
UV 0 out of 12
Pollen .10 out of 12
Air Quality Not available.
Flu Activity Not available.
SPECI KPTW 240921Z AUTO 18010G15KT 6SM -RA BR BKN009 OVC014 16/15 A2968 RMK AO2 P0003 T01610150

More Conditions Fewer Conditions

Pressure 29.68 in
Visibility 6.0 miles
Clouds Mostly Cloudy 900 ft
Overcast 1400 ft
Dew Point 60 °F
Humidity 92%
Rainfall 0.43 in
Snow Depth Not available.
UV 0 out of 12
Pollen .10 out of 12
Air Quality Not available.
Flu Activity Not available.
SPECI KPTW 240921Z AUTO 18010G15KT 6SM -RA BR BKN009 OVC014 16/15 A2968 RMK AO2 P0003 T01610150

More Conditions Fewer Conditions

10-Day Weather Forecast

Almanac

Astronomy

Nov. 24, 2014 Rise Set
Actual Time
Civil Twilight
Nautical Twilight
Astronomical Twilight
Moon
Length of Visible Light
Length of Day
Tomorrow will be .
, % of the Moon is Illuminated

Today's Extremes

State Highs State Lows

Community

WunderPhotos

Upload Photos

1,773,294 photos uploaded!

WunderBlogs® & News

Nearby

Air Quality

  Air Quality AQ Index Pollutant
Not available.

Snow Depth

Station Depth Elevation

Earthquake Activity

City Distance Mag. Time & Date
Minimum magnitude displayed is 2.5.

Coastal Water Temperatures

Place Temperature

Nearby Weather Stations